Belmont, New York
Current Conditions -  °F | °C
As of 10:56 AM on Wednesday 22 Oct 2014 (Local Time) from KELZ Reporting Station
Moderate Fog Moderate Fog  
Wind Chill: 37°   Ceiling: 100
Heat Index: 42°   Visibility: 0.25mi
Dew Point: 41°   Wind: 8mph
Humidity: 96%   Direction: 360°N
Pressure: 30.14"   Gusts: 18mph
Location:  42.22°N, 78.03°W
Report Text: KELZ 221456Z AUTO 36007G16KT 1/4SM FG VV001 06/05 A3014 RMK AO2 SLP219 T00560050 51012
Loading
Personal Weather Stations






























Interactive Weather Map
Tropical Storm Tracking
New forecast layout! Learn more

10-Day Weather Forecast

Advertisements
Track Severe Weather on mobile